Terminal Aerodrome Forecast
Issued by NWS Sterling, VA

Current Version | Previous Version | Graphics & Text | Print | Product List | Glossary On
Versions: 1 2 3 4 5 6 7 8 9 10 11 12 13 14 15 16
000
FTUS41 KLWX 272333
TAFMRB
TAF
KMRB 272333Z 2800/2824 33009KT P6SM OVC060
     FM281100 32011KT P6SM BKN050 PROB30 2814/2818 -SHSN
     FM282000 31014KT P6SM SCT060=

USA.gov is the U.S. government's official web portal to all federal, state and local government web resources and services.